Time;durP1;ratioP1;P1;durP2;ratioP2;P2;SDS_P1;SDS_P2;PMS_P1;PMS_P2;Temp;Humidity;BMP_temperature;BMP_pressure;BME280_temperature;BME280_humidity;BME280_pressure;Samples;Min_cycle;Max_cycle;Signal;HPM_P1;HPM_P2
2022/01/19 00:00:44;;;;;;;35.38;15.00;;;;;;;3.40;100.00;102723.34;5060930;28;20762;-77
2022/01/19 00:03:10;;;;;;;41.35;14.38;;;;;;;3.40;100.00;102717.22;5076612;28;20028;-76
2022/01/19 00:05:36;;;;;;;;;;;;;;;3.46;100.00;102711.63;5055271;28;20040;-78
2022/01/19 00:08:01;;;;;;;32.95;11.98;;;;;;;3.44;100.00;102721.41;5062027;28;19911;-77
2022/01/19 00:10:28;;;;;;;32.47;13.57;;;;;;;3.41;100.00;102708.34;5078556;28;20040;-76
2022/01/19 00:12:57;;;;;;;31.13;13.32;;;;;;;3.40;100.00;102706.66;5077302;28;20032;-75
2022/01/19 00:15:24;;;;;;;36.53;13.38;;;;;;;3.44;100.00;102714.38;5074573;28;20098;-76
2022/01/19 00:17:54;;;;;;;27.20;13.32;;;;;;;3.40;100.00;102706.66;5073820;28;20503;-75
2022/01/19 00:20:20;;;;;;;33.70;14.23;;;;;;;3.36;100.00;102705.91;5076390;28;20506;-76
2022/01/19 00:22:46;;;;;;;33.03;13.68;;;;;;;3.33;100.00;102703.41;5075627;28;20052;-76
2022/01/19 00:25:11;;;;;;;32.67;14.63;;;;;;;3.37;100.00;102719.06;5064744;28;20071;-75
2022/01/19 00:27:37;;;;;;;36.22;14.98;;;;;;;3.32;100.00;102721.03;5074209;28;20032;-76
2022/01/19 00:30:03;;;;;;;35.80;14.30;;;;;;;3.23;100.00;102691.53;5074835;28;20046;-74
2022/01/19 00:32:29;;;;;;;33.67;13.48;;;;;;;3.29;100.00;102699.19;5054543;28;20037;-77
2022/01/19 00:34:55;;;;;;;38.25;13.98;;;;;;;3.34;100.00;102708.63;5077166;28;20068;-76
2022/01/19 00:37:20;;;;;;;43.53;14.80;;;;;;;3.31;100.00;102687.63;5061341;28;20048;-75
2022/01/19 00:39:47;;;;;;;33.63;15.10;;;;;;;3.26;100.00;102684.34;5060181;28;20516;-75
2022/01/19 00:42:12;;;;;;;38.75;13.75;;;;;;;3.35;100.00;102685.72;5054665;28;20037;-75
2022/01/19 00:44:38;;;;;;;38.67;14.17;;;;;;;3.25;100.00;102661.50;5074755;28;20055;-78
2022/01/19 00:47:04;;;;;;;32.22;14.65;;;;;;;3.27;100.00;102657.00;5077795;28;20281;-75
2022/01/19 00:49:30;;;;;;;34.95;14.32;;;;;;;3.28;100.00;102658.75;5061214;28;20043;-76
2022/01/19 00:51:55;;;;;;;44.83;15.63;;;;;;;3.29;100.00;102663.09;5058952;28;20016;-75
2022/01/19 00:54:20;;;;;;;34.73;14.87;;;;;;;3.24;100.00;102662.44;5074107;28;20980;-75
2022/01/19 00:56:46;;;;;;;38.77;14.80;;;;;;;3.35;100.00;102678.66;5057221;28;20036;-77
2022/01/19 00:59:11;;;;;;;38.90;14.93;;;;;;;3.29;100.00;102673.66;5078069;28;20020;-75
2022/01/19 01:01:36;;;;;;;40.57;14.90;;;;;;;3.28;100.00;102660.53;5077601;28;20060;-75
2022/01/19 01:04:02;;;;;;;42.20;15.33;;;;;;;3.23;100.00;102658.09;5053886;28;20036;-76
2022/01/19 01:06:28;;;;;;;44.87;16.27;;;;;;;3.31;100.00;102663.88;5068860;28;20016;-76
2022/01/19 01:08:54;;;;;;;38.30;15.15;;;;;;;3.25;100.00;102653.56;5058367;28;20300;-76
2022/01/19 01:11:28;;;;;;;36.65;16.15;;;;;;;3.21;100.00;102630.03;5054270;28;20032;-75
2022/01/19 01:16:39;;;;;;;34.30;15.23;;;;;;;3.19;100.00;102622.19;5078879;28;20077;-74
2022/01/19 01:19:08;;;;;;;33.45;16.15;;;;;;;3.28;100.00;102626.22;5054058;28;20155;-76
2022/01/19 01:21:36;;;;;;;39.53;15.20;;;;;;;3.21;100.00;102615.06;5053436;28;20092;-75
2022/01/19 01:24:03;;;;;;;37.67;14.68;;;;;;;3.07;100.00;102599.84;5066797;28;20024;-75
2022/01/19 01:26:29;;;;;;;35.10;15.45;;;;;;;3.08;100.00;102606.81;5054077;28;20126;-77
2022/01/19 01:28:55;;;;;;;41.97;15.98;;;;;;;2.93;100.00;102591.69;5077087;28;20040;-75
2022/01/19 01:31:20;;;;;;;40.88;15.85;;;;;;;2.90;100.00;102594.44;5077472;28;20043;-78
2022/01/19 01:33:46;;;;;;;38.77;16.80;;;;;;;2.95;100.00;102605.69;5068070;28;20051;-75
2022/01/19 01:36:11;;;;;;;45.70;15.35;;;;;;;2.95;100.00;102603.88;5060789;28;20369;-78
2022/01/19 01:38:37;;;;;;;39.85;17.05;;;;;;;2.89;100.00;102588.31;5060769;28;20060;-77
2022/01/19 01:41:05;;;;;;;;;;;;;;;2.82;100.00;102580.75;5054139;28;20016;-75
2022/01/19 01:43:30;;;;;;;36.50;16.63;;;;;;;2.71;100.00;102573.28;5068778;28;19981;-75
2022/01/19 01:46:02;;;;;;;39.63;16.05;;;;;;;2.70;100.00;102572.44;5074452;28;20063;-76
2022/01/19 01:48:27;;;;;;;36.13;17.23;;;;;;;2.69;100.00;102564.59;5073933;28;20494;-78
2022/01/19 01:53:50;;;;;;;37.80;14.93;;;;;;;2.72;100.00;102552.13;5075150;28;20039;-78
2022/01/19 01:56:16;;;;;;;38.20;16.50;;;;;;;2.70;100.00;102532.03;5053707;28;20375;-79
2022/01/19 01:58:47;;;;;;;42.17;16.50;;;;;;;2.77;100.00;102532.63;5074870;28;20418;-78
2022/01/19 02:01:27;;;;;;;41.28;16.60;;;;;;;2.78;100.00;102527.25;5079620;28;20059;-79
2022/01/19 02:03:53;;;;;;;38.25;16.38;;;;;;;2.81;100.00;102519.22;5078508;28;20063;-78
2022/01/19 02:08:55;;;;;;;38.83;15.80;;;;;;;2.81;100.00;102503.41;5078909;28;20692;-77
2022/01/19 02:22:54;;;;;;;43.58;17.48;;;;;;;2.64;100.00;102480.38;5079925;28;20098;-77
2022/01/19 02:25:27;;;;;;;43.47;18.58;;;;;;;2.69;100.00;102472.28;5061747;28;20025;-78
2022/01/19 02:41:38;;;;;;;39.22;15.95;;;;;;;2.50;100.00;102416.88;5080682;28;20048;-78
2022/01/19 02:44:04;;;;;;;37.55;15.07;;;;;;;2.47;100.00;102409.13;5064353;28;20103;-77
2022/01/19 02:46:51;;;;;;;;;;;;;;;2.56;100.00;102413.97;5080805;28;20031;-76
2022/01/19 02:49:19;;;;;;;;;;;;;;;2.52;100.00;102407.97;5080685;28;19911;-78
2022/01/19 02:51:48;;;;;;;36.88;13.45;;;;;;;2.58;100.00;102411.28;5069286;28;20014;-79
2022/01/19 02:54:16;;;;;;;38.60;14.10;;;;;;;2.53;100.00;102403.56;5069883;28;20032;-78
2022/01/19 02:56:45;;;;;;;51.58;17.23;;;;;;;2.49;100.00;102412.53;5059347;28;20021;-78
2022/01/19 02:59:19;;;;;;;33.80;14.27;;;;;;;2.41;100.00;102394.44;5076541;28;20081;-78
2022/01/19 03:09:45;;;;;;;36.70;14.95;;;;;;;2.42;100.00;102401.41;5075716;28;20016;-78
2022/01/19 03:12:11;;;;;;;43.40;15.00;;;;;;;2.35;100.00;102391.22;5066399;28;20028;-77
2022/01/19 03:14:38;;;;;;;43.17;12.75;;;;;;;2.29;100.00;102390.56;5048191;28;20029;-77
2022/01/19 03:17:06;;;;;;;41.55;14.30;;;;;;;2.29;100.00;102387.06;5056283;28;20043;-78
2022/01/19 03:19:35;;;;;;;31.52;12.32;;;;;;;2.32;100.00;102390.44;5076312;28;20028;-77
2022/01/19 03:22:00;;;;;;;31.67;12.23;;;;;;;2.34;100.00;102387.69;5064038;28;20048;-78
2022/01/19 03:24:26;;;;;;;40.88;14.15;;;;;;;2.44;100.00;102385.53;5075947;28;20060;-77
2022/01/19 03:26:52;;;;;;;39.97;13.45;;;;;;;2.43;100.00;102382.03;5079360;28;20036;-76
2022/01/19 03:29:21;;;;;;;34.72;13.07;;;;;;;2.44;100.00;102370.56;5078891;28;20093;-76
2022/01/19 03:31:46;;;;;;;49.73;14.37;;;;;;;2.46;100.00;102365.22;5086404;28;20482;-78
2022/01/19 03:34:13;;;;;;;37.60;15.30;;;;;;;2.39;100.00;102359.38;5069468;28;20273;-77
2022/01/19 03:36:40;;;;;;;40.00;14.57;;;;;;;2.29;100.00;102347.53;5068302;23;20282;-88
2022/01/19 03:39:06;;;;;;;36.30;12.85;;;;;;;2.38;100.00;102349.75;5015213;28;20474;-88
2022/01/19 03:41:32;;;;;;;38.40;14.50;;;;;;;2.39;100.00;102334.78;5031764;28;20033;-89
2022/01/19 03:43:57;;;;;;;36.78;13.57;;;;;;;2.34;100.00;102324.44;5014367;28;20703;-88
2022/01/19 03:46:32;;;;;;;32.33;13.70;;;;;;;2.29;100.00;102314.16;5011863;28;20458;-88
2022/01/19 03:49:08;;;;;;;34.10;13.07;;;;;;;2.24;100.00;102286.28;5023250;28;20045;-88
2022/01/19 03:51:33;;;;;;;40.63;14.38;;;;;;;2.20;100.00;102292.59;5015572;28;20040;-88
2022/01/19 03:53:59;;;;;;;39.13;15.43;;;;;;;2.19;100.00;102288.28;5015312;28;20026;-88
2022/01/19 03:56:24;;;;;;;44.27;16.37;;;;;;;2.28;100.00;102287.84;5015862;28;20553;-87
2022/01/19 03:58:49;;;;;;;50.77;15.23;;;;;;;2.32;100.00;102289.44;5013349;28;20120;-88
2022/01/19 04:01:15;;;;;;;47.72;15.75;;;;;;;2.32;100.00;102292.91;5014034;28;20900;-89
2022/01/19 04:04:03;;;;;;;37.67;14.88;;;;;;;2.28;100.00;102288.69;5005549;28;20034;-90
2022/01/19 04:06:40;;;;;;;;;;;;;;;2.37;100.00;102292.69;5014497;28;20041;-88
2022/01/19 04:09:05;;;;;;;40.63;15.57;;;;;;;2.23;100.00;102274.88;5005926;28;19972;-88
2022/01/19 04:11:30;;;;;;;42.90;15.10;;;;;;;2.31;100.00;102277.16;5031403;28;20109;-88
2022/01/19 04:16:25;;;;;;;40.20;15.55;;;;;;;2.32;100.00;102263.91;5042145;28;20481;-87
2022/01/19 04:18:58;;;;;;;40.90;15.20;;;;;;;2.29;100.00;102250.00;5045854;28;20103;-88
2022/01/19 04:21:24;;;;;;;39.70;16.27;;;;;;;2.40;100.00;102260.06;5011030;28;20033;-88
2022/01/19 04:23:49;;;;;;;38.47;16.20;;;;;;;2.40;100.00;102254.78;5012522;28;20208;-88
2022/01/19 04:26:15;;;;;;;42.67;15.73;;;;;;;2.16;100.00;102239.19;5010277;28;20710;-88
2022/01/19 04:28:42;;;;;;;39.60;14.95;;;;;;;2.27;100.00;102238.69;5010915;28;20021;-88
2022/01/19 04:31:07;;;;;;;46.20;17.25;;;;;;;2.28;100.00;102235.97;5013500;28;20101;-88
2022/01/19 04:33:33;;;;;;;41.77;16.67;;;;;;;2.18;100.00;102218.03;5002571;28;20025;-88
2022/01/19 04:36:19;;;;;;;37.33;14.98;;;;;;;2.21;100.00;102213.47;5015118;28;20076;-87
2022/01/19 05:03:59;;;;;;;43.75;17.27;;;;;;;2.24;100.00;102180.84;5031326;28;20111;-88
2022/01/19 05:07:08;;;;;;;42.67;18.33;;;;;;;2.12;100.00;102163.84;5008628;28;20103;-89
2022/01/19 05:14:45;;;;;;;53.25;18.88;;;;;;;2.08;100.00;102150.00;5028738;28;20040;-88
2022/01/19 05:17:11;;;;;;;64.20;20.47;;;;;;;2.06;100.00;102145.69;5002002;28;20030;-89
2022/01/19 05:19:37;;;;;;;59.47;23.38;;;;;;;1.97;100.00;102130.34;5034572;28;20303;-86
2022/01/19 05:22:03;;;;;;;60.47;19.95;;;;;;;2.01;100.00;102151.19;5010291;28;20088;-85
2022/01/19 05:24:46;;;;;;;64.72;23.80;;;;;;;1.99;100.00;102150.44;5026366;28;20071;-88
2022/01/19 05:27:23;;;;;;;71.90;22.67;;;;;;;1.92;100.00;102154.28;5028787;28;20371;-88
2022/01/19 05:29:49;;;;;;;70.63;22.65;;;;;;;1.88;100.00;102144.81;5003249;28;20145;-88
2022/01/19 05:32:14;;;;;;;71.90;26.33;;;;;;;1.95;100.00;102153.28;5037664;28;20495;-88
2022/01/19 05:34:40;;;;;;;72.15;27.20;;;;;;;1.89;100.00;102142.06;5036359;28;20037;-88
2022/01/19 05:37:14;;;;;;;78.47;29.73;;;;;;;1.85;100.00;102131.75;5015236;28;20029;-88
2022/01/19 05:39:40;;;;;;;81.50;28.20;;;;;;;1.87;100.00;102128.16;5033079;28;20095;-87
2022/01/19 05:42:16;;;;;;;82.95;28.50;;;;;;;1.75;100.00;102126.06;5041693;28;20318;-87
2022/01/19 05:44:45;;;;;;;81.90;28.98;;;;;;;1.88;100.00;102147.44;5016102;28;20060;-87
2022/01/19 05:47:12;;;;;;;80.82;29.27;;;;;;;1.90;100.00;102150.84;5041519;28;20044;-87
2022/01/19 05:49:38;;;;;;;90.82;29.80;;;;;;;1.87;100.00;102150.97;5016463;28;20030;-88
2022/01/19 05:52:06;;;;;;;88.25;31.85;;;;;;;1.90;100.00;102154.34;5040919;28;20025;-88
2022/01/19 05:54:32;;;;;;;91.03;30.50;;;;;;;1.91;100.00;102147.28;5049447;22;20467;-77
2022/01/19 05:56:58;;;;;;;88.50;30.52;;;;;;;1.97;100.00;102154.91;5027583;28;20076;-78
2022/01/19 05:59:31;;;;;;;87.57;29.35;;;;;;;2.01;100.00;102152.97;5001153;28;20038;-77
2022/01/19 06:01:57;;;;;;;88.25;28.77;;;;;;;2.10;100.00;102148.09;5020275;28;20090;-77
2022/01/19 06:04:23;;;;;;;80.05;27.20;;;;;;;2.03;100.00;102130.03;5021116;28;20062;-76
2022/01/19 06:07:06;;;;;;;91.25;28.48;;;;;;;2.11;100.00;102128.75;5027838;28;20080;-77
2022/01/19 06:10:07;;;;;;;84.88;28.70;;;;;;;2.05;100.00;102115.88;5006233;28;20068;-78
2022/01/19 06:12:43;;;;;;;73.50;26.77;;;;;;;2.04;100.00;102114.16;5019482;28;20061;-77
2022/01/19 06:15:09;;;;;;;92.70;29.43;;;;;;;2.05;100.00;102110.59;5003237;28;20057;-77
2022/01/19 06:17:34;;;;;;;75.50;27.80;;;;;;;2.11;100.00;102112.09;5019774;28;20999;-76
2022/01/19 06:20:02;;;;;;;79.63;28.73;;;;;;;2.16;100.00;102114.50;5027989;28;20040;-78
2022/01/19 06:22:27;;;;;;;91.30;29.23;;;;;;;2.17;100.00;102095.13;5003400;28;20080;-77
2022/01/19 06:24:56;;;;;;;96.80;32.85;;;;;;;2.14;100.00;102085.59;5027237;28;20672;-76
2022/01/19 06:27:22;;;;;;;77.95;27.13;;;;;;;2.09;100.00;102074.44;5010880;28;20104;-77
2022/01/19 06:29:47;;;;;;;78.18;28.98;;;;;;;2.11;100.00;102069.94;5028893;28;20141;-77
2022/01/19 06:32:13;;;;;;;85.88;28.98;;;;;;;2.19;100.00;102072.19;5027351;28;20061;-77
2022/01/19 06:34:39;;;;;;;87.50;32.13;;;;;;;2.06;100.00;102042.94;5019154;28;20034;-77
2022/01/19 06:37:22;;;;;;;83.90;29.50;;;;;;;2.12;100.00;102045.28;5020544;28;20112;-77
2022/01/19 06:40:12;;;;;;;85.85;27.45;;;;;;;2.08;100.00;102028.81;5030011;28;20033;-78
2022/01/19 06:42:39;;;;;;;79.22;27.38;;;;;;;2.07;100.00;102029.72;5028538;28;20064;-78
2022/01/19 06:45:06;;;;;;;85.18;27.55;;;;;;;2.10;100.00;102026.91;5039443;28;20022;-77
2022/01/19 06:47:32;;;;;;;74.45;28.63;;;;;;;2.09;100.00;102022.59;5019864;28;20021;-77
2022/01/19 06:49:58;;;;;;;76.13;27.70;;;;;;;2.16;100.00;102035.47;5003124;28;20036;-78
2022/01/19 06:52:31;;;;;;;77.25;26.33;;;;;;;2.16;100.00;102019.66;5003811;28;20132;-80
2022/01/19 06:54:56;;;;;;;75.32;25.38;;;;;;;2.19;100.00;102019.50;5035104;28;20128;-78
2022/01/19 06:57:22;;;;;;;;;;;;;;;2.22;100.00;102019.34;5019429;28;20079;-78
2022/01/19 07:00:07;;;;;;;57.72;20.15;;;;;;;2.14;100.00;102005.72;5034129;28;20281;-79
2022/01/19 07:02:53;;;;;;;61.90;21.25;;;;;;;2.09;100.00;101998.88;5041139;28;20044;-76
2022/01/19 07:05:38;;;;;;;56.78;20.83;;;;;;;2.11;100.00;101999.66;5029297;28;20580;-78
2022/01/19 07:08:24;;;;;;;53.63;18.80;;;;;;;2.17;100.00;101989.72;5029850;28;20047;-78
2022/01/19 07:10:49;;;;;;;56.38;20.17;;;;;;;2.08;100.00;101965.56;5043490;28;20037;-77
2022/01/19 07:13:15;;;;;;;62.75;21.05;;;;;;;2.09;100.00;101962.00;5002256;28;20044;-76
2022/01/19 07:15:40;;;;;;;64.13;22.33;;;;;;;2.00;100.00;101945.81;5018625;28;20111;-76
2022/01/19 07:18:07;;;;;;;56.63;19.63;;;;;;;2.04;100.00;101964.00;5008152;28;20284;-77
2022/01/19 07:20:33;;;;;;;52.50;19.52;;;;;;;2.09;100.00;101961.16;5037090;28;20041;-78
2022/01/19 07:23:01;;;;;;;57.10;23.25;;;;;;;2.09;100.00;101962.00;5028617;28;20029;-78
2022/01/19 07:25:28;;;;;;;56.63;18.42;;;;;;;2.08;100.00;101956.78;5039930;28;20025;-77
2022/01/19 07:27:54;;;;;;;53.05;19.02;;;;;;;2.13;100.00;101957.44;5040058;28;20483;-77
2022/01/19 07:30:20;;;;;;;49.30;16.73;;;;;;;2.13;100.00;101948.66;5021063;28;20021;-78
2022/01/19 07:32:48;;;;;;;42.00;16.77;;;;;;;2.15;100.00;101952.06;5025917;28;20084;-77
2022/01/19 07:35:15;;;;;;;47.80;18.52;;;;;;;2.15;100.00;101954.69;5014927;28;20026;-76
2022/01/19 07:37:42;;;;;;;45.30;16.70;;;;;;;2.13;100.00;101951.28;5023762;28;20029;-77
2022/01/19 07:40:09;;;;;;;51.13;17.85;;;;;;;2.19;100.00;101953.63;5023421;28;20022;-78
2022/01/19 07:42:35;;;;;;;52.03;17.92;;;;;;;2.19;100.00;101948.34;5039610;28;20624;-77
2022/01/19 07:45:18;;;;;;;48.83;17.98;;;;;;;2.19;100.00;101932.53;5025703;28;20061;-77
2022/01/19 07:48:04;;;;;;;54.22;18.27;;;;;;;2.23;100.00;101913.00;5036869;28;20356;-76
2022/01/19 07:50:48;;;;;;;55.42;19.33;;;;;;;2.25;100.00;101914.63;5017931;28;20040;-76
2022/01/19 07:53:29;;;;;;;50.58;17.88;;;;;;;2.17;100.00;101901.00;5013640;28;20046;-76
2022/01/19 07:56:19;;;;;;;48.15;17.58;;;;;;;2.20;100.00;101899.97;5000177;28;20410;-77
2022/01/19 07:59:04;;;;;;;53.60;18.80;;;;;;;2.29;100.00;101910.03;5016291;28;20126;-78
2022/01/19 08:01:47;;;;;;;54.05;17.08;;;;;;;2.21;100.00;101886.72;5001493;28;20065;-76
2022/01/19 08:04:47;;;;;;;58.78;18.30;;;;;;;2.31;100.00;101901.13;4995930;28;20133;-78
2022/01/19 08:07:17;;;;;;;44.47;16.50;;;;;;;2.25;100.00;101882.16;5013938;28;20088;-77
2022/01/19 08:09:43;;;;;;;45.37;15.73;;;;;;;2.24;100.00;101881.28;5022995;28;20373;-77
2022/01/19 08:12:10;;;;;;;48.60;16.23;;;;;;;2.31;100.00;101887.09;5017323;28;20287;-77
2022/01/19 08:14:40;;;;;;;43.88;16.55;;;;;;;2.33;100.00;101872.06;5022324;28;20684;-77
2022/01/19 08:17:06;;;;;;;46.67;17.43;;;;;;;2.31;100.00;101866.00;5031115;28;20109;-77
2022/01/19 08:19:37;;;;;;;41.72;15.82;;;;;;;2.27;100.00;101843.38;5020748;28;20318;-77
2022/01/19 08:22:04;;;;;;;49.47;18.08;;;;;;;2.23;100.00;101849.78;5014186;28;20124;-77
2022/01/19 08:24:30;;;;;;;47.92;16.63;;;;;;;2.34;100.00;101842.13;5037347;28;20033;-76
2022/01/19 08:26:57;;;;;;;49.28;16.88;;;;;;;2.41;100.00;101838.25;5024808;28;20430;-77
2022/01/19 08:29:27;;;;;;;45.65;16.98;;;;;;;2.39;100.00;101831.31;5031680;28;20026;-77
2022/01/19 08:31:57;;;;;;;55.58;19.45;;;;;;;2.34;100.00;101826.31;5030156;28;20523;-77
2022/01/19 08:34:55;;;;;;;56.40;19.52;;;;;;;2.37;100.00;101806.88;5016509;28;20052;-77
2022/01/19 08:37:29;;;;;;;52.90;18.50;;;;;;;2.46;100.00;101807.22;5019681;28;20042;-77
2022/01/19 08:40:00;;;;;;;59.03;20.42;;;;;;;2.34;100.00;101802.59;5016713;28;20169;-77
2022/01/19 08:42:28;;;;;;;50.50;19.83;;;;;;;2.36;100.00;101795.44;5033608;28;20064;-76
2022/01/19 08:44:54;;;;;;;61.92;22.17;;;;;;;2.41;100.00;101803.97;4997726;28;20517;-76
2022/01/19 08:47:23;;;;;;;57.42;21.42;;;;;;;2.47;100.00;101803.63;5013235;28;20491;-76
2022/01/19 08:50:24;;;;;;;66.35;22.23;;;;;;;2.45;100.00;101794.09;5016644;28;20057;-77
2022/01/19 08:52:50;;;;;;;60.47;22.25;;;;;;;2.49;100.00;101791.22;5016267;28;20050;-76
2022/01/19 08:55:29;;;;;;;74.72;25.13;;;;;;;2.50;100.00;101790.25;5005829;28;20112;-77
2022/01/19 08:57:54;;;;;;;68.68;22.63;;;;;;;2.55;100.00;101787.38;5018193;28;20124;-77
2022/01/19 09:00:21;;;;;;;73.05;24.77;;;;;;;2.57;100.00;101792.56;5011897;28;20825;-76
2022/01/19 09:02:47;;;;;;;63.90;23.42;;;;;;;2.53;100.00;101781.38;5015767;28;20030;-77
2022/01/19 09:05:13;;;;;;;70.03;23.58;;;;;;;2.50;100.00;101777.09;5020092;28;20022;-77
2022/01/19 09:07:39;;;;;;;73.03;25.77;;;;;;;2.50;100.00;101777.09;4997151;28;20046;-77
2022/01/19 09:10:07;;;;;;;69.28;23.13;;;;;;;2.47;100.00;101777.25;5028808;28;20114;-77
2022/01/19 09:12:34;;;;;;;72.35;24.58;;;;;;;2.49;100.00;101770.13;5020217;28;20083;-77
2022/01/19 09:14:59;;;;;;;80.63;27.33;;;;;;;2.53;100.00;101774.31;5014109;28;20030;-76
2022/01/19 09:17:25;;;;;;;78.70;25.53;;;;;;;2.57;100.00;101774.13;5014336;28;20038;-77
2022/01/19 09:19:50;;;;;;;73.90;26.13;;;;;;;2.64;100.00;101778.97;5014927;28;20063;-77
2022/01/19 09:22:16;;;;;;;78.10;27.30;;;;;;;2.62;100.00;101772.94;5026342;28;20033;-78
2022/01/19 09:24:43;;;;;;;78.28;30.98;;;;;;;2.52;100.00;101754.13;5017179;28;20180;-77
2022/01/19 09:27:09;;;;;;;80.70;28.20;;;;;;;2.67;100.00;101751.56;5016392;28;20518;-77
2022/01/19 09:29:38;;;;;;;89.82;29.95;;;;;;;2.70;100.00;101735.59;5016342;28;20037;-77
2022/01/19 09:32:07;;;;;;;85.68;30.40;;;;;;;2.73;100.00;101738.03;5016804;28;20053;-75
2022/01/19 09:34:34;;;;;;;85.85;27.30;;;;;;;2.86;100.00;101720.59;5016613;28;20026;-75
2022/01/19 09:36:59;;;;;;;80.72;28.55;;;;;;;2.81;100.00;101712.09;5047736;23;20033;-83
2022/01/19 09:39:26;;;;;;;77.45;30.23;;;;;;;2.91;100.00;101697.41;5019360;28;20045;-83
2022/01/19 09:41:53;;;;;;;95.15;33.65;;;;;;;3.00;100.00;101703.09;5012939;28;20109;-83
2022/01/19 09:44:22;;;;;;;88.57;29.83;;;;;;;2.99;100.00;101689.03;5006200;28;20387;-83
2022/01/19 09:46:48;;;;;;;92.20;32.47;;;;;;;3.00;100.00;101684.63;5006165;28;20033;-82
2022/01/19 09:49:17;;;;;;;85.97;33.80;;;;;;;3.08;100.00;101677.09;5012175;28;20482;-83
2022/01/19 09:51:45;;;;;;;78.35;30.42;;;;;;;3.02;100.00;101662.50;4995516;28;20038;-83
2022/01/19 09:54:16;;;;;;;87.20;31.00;;;;;;;3.09;100.00;101663.84;4995549;28;20226;-83
2022/01/19 09:56:42;;;;;;;88.07;32.22;;;;;;;3.24;100.00;101651.50;5003850;28;20041;-83
2022/01/19 09:59:08;;;;;;;79.28;32.58;;;;;;;3.19;100.00;101652.72;4996049;28;20028;-83
2022/01/19 10:01:34;;;;;;;83.30;32.97;;;;;;;3.24;100.00;101638.31;5011964;28;20041;-83
2022/01/19 10:04:16;;;;;;;81.85;32.28;;;;;;;3.37;100.00;101644.53;5027989;28;20041;-83
2022/01/19 10:06:41;;;;;;;96.90;35.78;;;;;;;3.29;100.00;101633.59;5020382;28;20068;-83
2022/01/19 10:09:06;;;;;;;90.23;33.80;;;;;;;3.36;100.00;101613.78;5003563;28;20475;-82
2022/01/19 10:17:02;;;;;;;87.75;35.70;;;;;;;3.46;100.00;101608.78;5030746;28;20046;-83
2022/01/19 10:19:44;;;;;;;85.13;35.00;;;;;;;3.51;100.00;101590.03;5036697;28;20033;-84
2022/01/19 10:22:23;;;;;;;99.88;35.92;;;;;;;3.52;100.00;101581.16;5005440;28;20029;-83
2022/01/19 10:24:50;;;;;;;88.63;34.60;;;;;;;3.50;100.00;101567.22;5007254;28;20029;-83
2022/01/19 10:27:31;;;;;;;99.45;33.38;;;;;;;3.46;100.00;101557.78;5015739;28;20478;-84
2022/01/19 10:30:02;;;;;;;87.63;33.17;;;;;;;3.46;100.00;101555.13;5015287;28;20098;-84
2022/01/19 10:32:29;;;;;;;77.80;29.60;;;;;;;3.36;100.00;101539.88;5023814;28;20061;-84
2022/01/19 10:34:55;;;;;;;81.57;32.28;;;;;;;3.43;100.00;101539.50;4998724;28;20112;-83
2022/01/19 10:37:25;;;;;;;89.60;36.28;;;;;;;3.42;100.00;101532.50;5015609;28;20125;-84
2022/01/19 10:39:54;;;;;;;83.10;31.75;;;;;;;3.32;100.00;101521.69;5015694;28;20513;-83
2022/01/19 10:42:27;;;;;;;81.28;32.97;;;;;;;3.32;100.00;101511.13;5015772;28;20815;-83
2022/01/19 10:45:03;;;;;;;78.70;34.80;;;;;;;3.41;100.00;101515.00;5015035;28;20041;-84
2022/01/19 10:47:56;;;;;;;77.95;30.02;;;;;;;3.44;100.00;101518.31;5007133;28;20065;-84
2022/01/19 10:50:23;;;;;;;73.40;30.05;;;;;;;3.53;100.00;101499.19;5031983;28;20060;-83
2022/01/19 10:52:49;;;;;;;78.53;28.13;;;;;;;3.48;100.00;101487.25;5007125;28;20044;-83
2022/01/19 10:55:30;;;;;;;69.20;28.35;;;;;;;3.52;100.00;101497.53;5015485;28;20974;-83
2022/01/19 10:57:57;;;;;;;74.82;27.92;;;;;;;3.58;100.00;101483.94;5015359;28;20793;-84
2022/01/19 11:00:23;;;;;;;73.85;29.80;;;;;;;3.63;100.00;101473.06;5041255;28;20037;-84
2022/01/19 11:02:51;;;;;;;69.72;28.38;;;;;;;3.66;100.00;101466.75;5013921;28;20038;-84
2022/01/19 11:05:37;;;;;;;69.93;28.13;;;;;;;3.66;100.00;101445.63;5023441;28;20034;-84
2022/01/19 11:08:03;;;;;;;64.80;26.88;;;;;;;3.65;100.00;101428.91;5024225;28;20040;-84
2022/01/19 11:10:31;;;;;;;65.45;27.60;;;;;;;3.69;100.00;101422.47;5023903;28;20041;-84
2022/01/19 11:12:56;;;;;;;68.25;27.88;;;;;;;3.71;100.00;101407.38;4999266;28;20029;-84
2022/01/19 11:15:22;;;;;;;59.85;24.67;;;;;;;3.67;99.89;101390.03;5007285;28;20045;-84
2022/01/19 11:17:48;;;;;;;65.63;26.45;;;;;;;3.72;99.80;101390.59;5023468;28;20064;-83
2022/01/19 11:20:16;;;;;;;71.53;27.42;;;;;;;3.65;99.45;101381.38;5007550;28;20025;-84
2022/01/19 11:22:49;;;;;;;56.10;23.40;;;;;;;3.56;99.21;101366.16;5031883;28;20376;-84
2022/01/19 11:25:17;;;;;;;55.45;24.30;;;;;;;3.67;99.09;101363.63;5023370;28;20068;-84
2022/01/19 11:27:45;;;;;;;64.95;25.23;;;;;;;3.58;98.91;101336.06;5029593;28;20041;-84
2022/01/19 11:30:14;;;;;;;67.18;24.85;;;;;;;3.47;98.60;101306.91;5023443;28;20128;-84
2022/01/19 11:32:41;;;;;;;67.50;24.80;;;;;;;3.65;98.68;101318.00;5040679;28;20047;-84
2022/01/19 11:35:07;;;;;;;66.55;25.48;;;;;;;3.62;98.81;101315.56;5038989;28;20504;-84
2022/01/19 11:37:34;;;;;;;72.50;27.67;;;;;;;3.64;98.54;101300.47;4999208;28;20061;-84
2022/01/19 11:40:16;;;;;;;74.15;25.85;;;;;;;3.67;98.50;101316.09;5016065;28;20039;-84
2022/01/19 11:42:43;;;;;;;69.82;28.83;;;;;;;3.56;98.38;101293.06;5015937;28;20037;-84
2022/01/19 11:45:30;;;;;;;69.68;29.42;;;;;;;3.51;98.42;101273.19;4998849;28;20022;-84
2022/01/19 11:48:16;;;;;;;78.25;31.27;;;;;;;3.54;98.38;101260.66;5024178;28;20033;-84
2022/01/19 11:50:43;;;;;;;62.25;25.25;;;;;;;3.62;98.35;101264.56;4999869;28;20033;-84
2022/01/19 11:53:10;;;;;;;;;;;;;;;3.61;98.18;101257.59;5015931;28;20052;-84
2022/01/19 11:55:38;;;;;;;65.18;28.92;;;;;;;3.53;98.57;101255.47;5044715;22;19932;-75
2022/01/19 11:58:24;;;;;;;65.60;29.10;;;;;;;3.58;98.52;101243.66;5049659;28;20040;-79
2022/01/19 12:00:54;;;;;;;75.18;31.00;;;;;;;3.65;98.16;101249.34;5039780;28;20102;-77
2022/01/19 12:03:26;;;;;;;73.28;30.55;;;;;;;3.59;98.24;101236.56;5038526;28;20034;-77
2022/01/19 12:05:54;;;;;;;79.40;33.25;;;;;;;3.58;98.26;101237.50;5040460;28;20041;-78
2022/01/19 12:08:32;;;;;;;70.85;30.27;;;;;;;3.51;98.34;101236.22;5035244;28;20041;-78
2022/01/19 12:11:13;;;;;;;61.30;27.35;;;;;;;3.50;98.24;101234.56;5032797;28;20033;-77
2022/01/19 12:19:01;;;;;;;78.07;34.45;;;;;;;3.50;99.06;101239.84;5040797;28;20033;-77
2022/01/19 12:21:48;;;;;;;73.00;31.23;;;;;;;3.56;99.08;101232.34;5041021;28;20124;-79
2022/01/19 12:24:37;;;;;;;67.50;31.02;;;;;;;3.56;98.92;101218.31;5037543;28;20052;-78
2022/01/19 12:27:21;;;;;;;67.60;28.63;;;;;;;3.54;98.39;101204.38;5021627;28;20041;-78
2022/01/19 12:29:51;;;;;;;67.75;29.05;;;;;;;3.61;97.97;101196.88;5032871;28;20048;-78
2022/01/19 12:32:16;;;;;;;55.45;24.00;;;;;;;3.60;97.45;101174.88;5040864;28;20060;-79
2022/01/19 12:34:47;;;;;;;51.80;24.17;;;;;;;3.65;97.06;101164.84;5016295;28;20072;-78
2022/01/19 12:37:33;;;;;;;59.67;25.90;;;;;;;3.69;96.57;101155.75;5027265;28;20141;-78
2022/01/19 12:40:02;;;;;;;59.90;25.23;;;;;;;3.57;96.22;101127.56;5048598;28;20478;-78
2022/01/19 12:42:45;;;;;;;60.70;24.42;;;;;;;3.53;96.03;101112.91;5017783;28;20048;-79
2022/01/19 12:45:33;;;;;;;58.78;23.05;;;;;;;3.67;96.03;101125.13;5048282;28;20032;-78
2022/01/19 12:48:06;;;;;;;56.33;25.02;;;;;;;3.57;95.66;101102.00;5042625;28;20028;-78
2022/01/19 12:50:39;;;;;;;53.35;23.52;;;;;;;3.55;95.79;101098.63;5041345;28;20530;-78